Time;durP1;ratioP1;P1;durP2;ratioP2;P2;SDS_P1;SDS_P2;PMS_P1;PMS_P2;Temp;Humidity;BMP_temperature;BMP_pressure;BME280_temperature;BME280_humidity;BME280_pressure;Samples;Min_cycle;Max_cycle;Signal;HPM_P1;HPM_P2
2021/05/13 00:04:49;;;;;;;31.92;21.38;;;;;;;;;;10261831;28;20072;-65
2021/05/13 00:09:47;;;;;;;32.47;20.05;;;;;;;;;;10258807;28;20037;-65
2021/05/13 00:14:43;;;;;;;29.73;17.88;;;;;;;;;;10254971;28;20068;-65
2021/05/13 00:19:39;;;;;;;36.72;19.38;;;;;;;;;;10253446;28;20091;-65
2021/05/13 00:24:36;;;;;;;35.55;21.05;;;;;;;;;;10253906;28;20095;-68
2021/05/13 00:29:32;;;;;;;38.95;21.27;;;;;;;;;;10271819;28;20045;-68
2021/05/13 00:34:28;;;;;;;29.27;17.42;;;;;;;;;;10261994;28;20041;-68
2021/05/13 00:39:24;;;;;;;33.08;19.58;;;;;;;;;;10272304;28;20049;-68
2021/05/13 00:44:21;;;;;;;31.35;18.75;;;;;;;;;;10264443;28;20158;-68
2021/05/13 00:49:19;;;;;;;35.35;19.38;;;;;;;;;;10260341;28;20073;-69
2021/05/13 00:54:17;;;;;;;37.42;20.23;;;;;;;;;;10263639;28;20064;-68
2021/05/13 00:59:14;;;;;;;34.00;19.60;;;;;;;;;;10265055;28;20401;-68
2021/05/13 01:04:10;;;;;;;32.33;20.02;;;;;;;;;;10268672;28;20044;-68
2021/05/13 01:09:08;;;;;;;35.33;21.48;;;;;;;;;;10261602;28;20045;-68
2021/05/13 01:14:16;;;;;;;37.85;20.95;;;;;;;;;;10240869;28;20078;-68
2021/05/13 01:19:14;;;;;;;38.53;22.52;;;;;;;;;;10250238;28;20130;-65
2021/05/13 01:24:12;;;;;;;37.60;21.65;;;;;;;;;;10262550;28;20076;-65
2021/05/13 01:29:10;;;;;;;37.55;20.67;;;;;;;;;;10269173;28;20053;-67
2021/05/13 01:34:08;;;;;;;34.33;19.80;;;;;;;;;;10260514;28;20384;-65
2021/05/13 01:39:06;;;;;;;37.13;22.13;;;;;;;;;;10269252;28;20099;-68
2021/05/13 01:44:03;;;;;;;29.55;19.80;;;;;;;;;;10260164;28;20044;-68
2021/05/13 01:49:00;;;;;;;33.35;20.02;;;;;;;;;;10265445;28;20098;-68
2021/05/13 01:53:56;;;;;;;31.17;17.17;;;;;;;;;;10245888;28;20538;-68
2021/05/13 01:58:52;;;;;;;32.33;18.95;;;;;;;;;;10270908;28;20556;-68
2021/05/13 02:03:48;;;;;;;34.45;19.73;;;;;;;;;;10264489;28;20494;-68
2021/05/13 02:08:45;;;;;;;32.10;17.88;;;;;;;;;;10262687;28;20514;-65
2021/05/13 02:13:41;;;;;;;30.50;16.67;;;;;;;;;;10265921;28;20098;-67
2021/05/13 02:18:39;;;;;;;29.65;18.73;;;;;;;;;;10256028;28;20099;-67
2021/05/13 02:23:36;;;;;;;35.50;19.52;;;;;;;;;;10259270;28;20041;-66
2021/05/13 02:28:32;;;;;;;31.08;18.83;;;;;;;;;;10260935;28;20515;-68
2021/05/13 02:33:28;;;;;;;37.42;20.38;;;;;;;;;;10259075;28;20468;-68
2021/05/13 02:38:25;;;;;;;35.78;20.35;;;;;;;;;;10267367;28;20060;-68
2021/05/13 02:43:21;;;;;;;38.30;22.65;;;;;;;;;;10253184;28;20045;-68
2021/05/13 02:48:17;;;;;;;44.10;22.42;;;;;;;;;;10262173;28;20045;-67
2021/05/13 02:53:14;;;;;;;40.30;21.92;;;;;;;;;;10257718;28;20040;-67
2021/05/13 02:58:10;;;;;;;35.97;22.08;;;;;;;;;;10266061;28;20477;-68
2021/05/13 03:03:06;;;;;;;41.25;21.65;;;;;;;;;;10267383;28;20090;-69
2021/05/13 03:08:04;;;;;;;37.45;21.33;;;;;;;;;;10269001;28;20087;-68
2021/05/13 03:13:02;;;;;;;38.55;21.40;;;;;;;;;;10255095;28;20091;-68
2021/05/13 03:17:58;;;;;;;39.30;22.58;;;;;;;;;;10258494;28;20115;-69
2021/05/13 03:22:57;;;;;;;39.22;21.23;;;;;;;;;;10264898;28;20160;-68
2021/05/13 03:28:06;;;;;;;42.83;22.08;;;;;;;;;;10264594;28;20033;-68
2021/05/13 03:33:04;;;;;;;35.63;20.60;;;;;;;;;;10252453;28;20045;-67
2021/05/13 03:38:01;;;;;;;35.63;20.52;;;;;;;;;;10253208;28;20076;-68
2021/05/13 03:42:58;;;;;;;38.53;22.65;;;;;;;;;;10261112;28;20051;-68
2021/05/13 03:47:55;;;;;;;41.97;23.58;;;;;;;;;;10270725;28;20053;-68
2021/05/13 03:52:51;;;;;;;37.00;21.33;;;;;;;;;;10256276;28;20499;-69
2021/05/13 03:57:48;;;;;;;36.65;21.73;;;;;;;;;;10257947;28;20110;-66
2021/05/13 04:02:44;;;;;;;32.38;20.38;;;;;;;;;;10260174;28;20107;-67
2021/05/13 04:07:41;;;;;;;38.00;22.02;;;;;;;;;;10260553;28;20041;-68
2021/05/13 04:12:38;;;;;;;39.15;22.02;;;;;;;;;;10262827;28;20126;-68
2021/05/13 04:17:35;;;;;;;33.33;19.77;;;;;;;;;;10252234;28;20061;-68
2021/05/13 04:22:32;;;;;;;44.42;22.15;;;;;;;;;;10254559;28;20602;-68
2021/05/13 04:27:28;;;;;;;34.42;20.80;;;;;;;;;;10253145;28;20069;-68
2021/05/13 04:32:24;;;;;;;36.90;20.23;;;;;;;;;;10258574;28;20075;-66
2021/05/13 04:37:21;;;;;;;37.33;21.85;;;;;;;;;;10260063;28;20052;-67
2021/05/13 04:42:17;;;;;;;36.60;22.15;;;;;;;;;;10259572;28;20190;-67
2021/05/13 04:47:31;;;;;;;36.65;22.60;;;;;;;;;;10256211;28;20461;-67
2021/05/13 04:52:27;;;;;;;34.58;20.92;;;;;;;;;;10256406;28;20052;-67
2021/05/13 04:57:25;;;;;;;31.30;18.58;;;;;;;;;;10252461;28;20503;-65
2021/05/13 05:02:21;;;;;;;31.88;19.42;;;;;;;;;;10259152;28;20422;-66
2021/05/13 05:07:17;;;;;;;34.60;20.80;;;;;;;;;;10258526;28;20514;-66
2021/05/13 05:12:14;;;;;;;30.00;19.52;;;;;;;;;;10259943;28;20041;-67
2021/05/13 05:17:10;;;;;;;30.13;19.30;;;;;;;;;;10264458;28;20114;-66
2021/05/13 05:22:07;;;;;;;29.95;17.75;;;;;;;;;;10255381;28;20507;-66
2021/05/13 05:27:03;;;;;;;29.50;18.35;;;;;;;;;;10261400;28;20059;-67
2021/05/13 05:31:59;;;;;;;31.92;20.27;;;;;;;;;;10246637;28;20073;-67
2021/05/13 05:36:56;;;;;;;29.23;19.73;;;;;;;;;;10250554;28;20056;-67
2021/05/13 05:41:54;;;;;;;28.25;18.17;;;;;;;;;;10256917;28;20048;-67
2021/05/13 05:46:50;;;;;;;26.70;17.35;;;;;;;;;;10253526;28;20041;-67
2021/05/13 05:51:47;;;;;;;29.23;18.15;;;;;;;;;;10261815;28;20041;-66
2021/05/13 05:56:43;;;;;;;27.40;15.95;;;;;;;;;;10268712;28;20072;-68
2021/05/13 06:01:40;;;;;;;29.00;17.08;;;;;;;;;;10262003;28;20044;-67
2021/05/13 06:06:37;;;;;;;34.67;19.17;;;;;;;;;;10261837;28;20125;-67
2021/05/13 06:11:34;;;;;;;33.45;19.50;;;;;;;;;;10266631;28;20442;-67
2021/05/13 06:16:30;;;;;;;29.75;18.42;;;;;;;;;;10266616;28;20076;-67
2021/05/13 06:21:27;;;;;;;36.35;18.75;;;;;;;;;;10268546;28;20927;-67
2021/05/13 06:26:30;;;;;;;28.50;17.33;;;;;;;;;;10268657;28;20045;-67
2021/05/13 06:31:31;;;;;;;30.75;16.63;;;;;;;;;;10249200;28;20053;-67
2021/05/13 06:36:27;;;;;;;36.35;16.80;;;;;;;;;;10261958;28;20053;-67
2021/05/13 06:41:23;;;;;;;29.30;18.15;;;;;;;;;;10263248;28;20095;-66
2021/05/13 06:46:22;;;;;;;33.75;18.50;;;;;;;;;;10264233;28;20033;-66
2021/05/13 06:51:19;;;;;;;31.70;18.73;;;;;;;;;;10281118;28;20499;-67
2021/05/13 06:56:16;;;;;;;34.83;17.85;;;;;;;;;;10255433;28;20037;-68
2021/05/13 07:01:12;;;;;;;32.10;17.60;;;;;;;;;;10255775;28;20048;-68
2021/05/13 07:06:09;;;;;;;36.17;18.20;;;;;;;;;;10266989;28;20569;-68
2021/05/13 07:11:05;;;;;;;30.73;16.70;;;;;;;;;;10254986;28;20052;-65
2021/05/13 07:16:02;;;;;;;31.30;16.70;;;;;;;;;;10252706;28;20087;-68
2021/05/13 07:20:58;;;;;;;30.73;16.30;;;;;;;;;;10246190;28;20103;-68
2021/05/13 07:25:55;;;;;;;27.73;16.65;;;;;;;;;;10259356;28;20045;-69
2021/05/13 07:30:51;;;;;;;27.27;14.90;;;;;;;;;;10261156;28;20099;-67
2021/05/13 07:35:48;;;;;;;26.67;15.27;;;;;;;;;;10248932;28;20605;-67
2021/05/13 07:40:44;;;;;;;29.17;15.90;;;;;;;;;;10259520;28;20550;-67
2021/05/13 07:45:43;;;;;;;28.30;15.40;;;;;;;;;;10259783;28;20519;-66
2021/05/13 07:50:39;;;;;;;21.95;13.90;;;;;;;;;;10249410;28;20095;-68
2021/05/13 07:55:37;;;;;;;26.65;14.13;;;;;;;;;;10255344;28;20075;-66
2021/05/13 08:00:33;;;;;;;23.92;13.27;;;;;;;;;;10249662;28;20076;-68
2021/05/13 08:05:29;;;;;;;25.17;14.57;;;;;;;;;;10262168;28;20041;-68
2021/05/13 08:10:26;;;;;;;25.38;14.40;;;;;;;;;;10257872;28;20067;-69
2021/05/13 08:15:23;;;;;;;23.23;13.80;;;;;;;;;;10262542;28;20186;-69
2021/05/13 08:20:19;;;;;;;21.65;12.77;;;;;;;;;;10264519;28;20124;-69
2021/05/13 08:25:19;;;;;;;19.85;12.57;;;;;;;;;;10255106;28;20087;-68
2021/05/13 08:30:16;;;;;;;20.85;12.10;;;;;;;;;;10255209;28;20438;-69
2021/05/13 08:35:12;;;;;;;19.50;9.75;;;;;;;;;;10255918;28;20095;-69
2021/05/13 08:40:09;;;;;;;14.70;9.48;;;;;;;;;;10265978;28;20052;-69
2021/05/13 08:45:05;;;;;;;14.07;8.43;;;;;;;;;;10264541;28;20095;-68
2021/05/13 08:50:02;;;;;;;13.38;8.32;;;;;;;;;;10254140;28;20044;-68
2021/05/13 08:55:00;;;;;;;19.02;9.77;;;;;;;;;;10263736;28;20083;-67
2021/05/13 08:59:57;;;;;;;15.10;8.50;;;;;;;;;;10254398;28;20110;-68
2021/05/13 09:04:53;;;;;;;12.82;8.50;;;;;;;;;;10243116;28;20065;-69
2021/05/13 09:09:55;;;;;;;12.32;6.22;;;;;;;;;;10259785;28;20037;-68
2021/05/13 09:15:00;;;;;;;11.48;6.50;;;;;;;;;;10248427;28;20110;-68
2021/05/13 09:19:57;;;;;;;9.20;6.15;;;;;;;;;;10253336;28;20781;-68
2021/05/13 09:24:55;;;;;;;10.45;5.95;;;;;;;;;;10253212;28;20040;-69
2021/05/13 09:30:14;;;;;;;12.80;7.72;;;;;;;;;;10250869;28;20410;-69
2021/05/13 09:35:12;;;;;;;10.75;6.53;;;;;;;;;;10262522;28;20045;-69
2021/05/13 09:40:09;;;;;;;10.98;6.45;;;;;;;;;;10259500;28;20061;-69
2021/05/13 09:45:07;;;;;;;12.60;6.93;;;;;;;;;;10243410;28;20045;-71
2021/05/13 09:50:07;;;;;;;10.30;6.03;;;;;;;;;;10251140;28;20091;-69
2021/05/13 09:55:14;;;;;;;11.30;6.68;;;;;;;;;;10255393;28;20048;-69
2021/05/13 10:00:11;;;;;;;10.35;5.50;;;;;;;;;;10253590;28;20045;-69
2021/05/13 10:05:07;;;;;;;12.93;7.00;;;;;;;;;;10249616;28;20072;-68
2021/05/13 10:10:04;;;;;;;8.38;5.18;;;;;;;;;;10253239;28;20132;-70
2021/05/13 10:15:02;;;;;;;9.98;5.97;;;;;;;;;;10246734;28;20091;-69
2021/05/13 10:19:59;;;;;;;8.45;5.00;;;;;;;;;;10263288;28;20048;-69
2021/05/13 10:25:14;;;;;;;9.30;5.40;;;;;;;;;;10251656;28;20045;-69
2021/05/13 10:30:14;;;;;;;12.35;7.07;;;;;;;;;;10248662;28;20403;-69
2021/05/13 10:35:12;;;;;;;11.07;7.68;;;;;;;;;;10260818;28;20045;-69
2021/05/13 10:40:18;;;;;;;13.32;7.28;;;;;;;;;;10254517;28;20066;-68
2021/05/13 10:45:30;;;;;;;11.55;6.43;;;;;;;;;;10249314;28;20798;-68
2021/05/13 10:50:56;;;;;;;9.75;5.05;;;;;;;;;;10254638;28;20072;-69
2021/05/13 10:56:11;;;;;;;12.65;6.50;;;;;;;;;;10257547;28;20662;-69
2021/05/13 11:01:32;;;;;;;9.85;6.68;;;;;;;;;;10253398;28;20065;-68
2021/05/13 11:06:42;;;;;;;12.82;7.47;;;;;;;;;;10254045;28;20110;-68
2021/05/13 11:11:57;;;;;;;12.80;7.28;;;;;;;;;;10257959;28;20040;-69
2021/05/13 11:16:56;;;;;;;16.30;7.60;;;;;;;;;;10260927;28;20102;-68
2021/05/13 11:21:54;;;;;;;15.93;8.75;;;;;;;;;;10263208;28;20044;-67
2021/05/13 11:26:55;;;;;;;15.55;8.68;;;;;;;;;;10263680;28;20110;-68
2021/05/13 11:31:52;;;;;;;12.63;8.55;;;;;;;;;;10248446;28;20056;-68
2021/05/13 11:36:48;;;;;;;13.40;7.60;;;;;;;;;;10247859;28;20057;-71
2021/05/13 11:41:46;;;;;;;11.45;7.32;;;;;;;;;;10255849;28;20132;-70
2021/05/13 11:46:43;;;;;;;10.70;6.88;;;;;;;;;;10273177;28;20041;-70
2021/05/13 11:51:40;;;;;;;10.43;5.82;;;;;;;;;;10256826;28;20463;-70
2021/05/13 11:56:37;;;;;;;11.00;6.20;;;;;;;;;;10252761;28;20048;-70
2021/05/13 12:01:37;;;;;;;8.35;5.85;;;;;;;;;;10251704;28;20049;-68
2021/05/13 12:06:41;;;;;;;10.85;5.90;;;;;;;;;;10256091;28;20056;-69
2021/05/13 12:11:38;;;;;;;;;;;;;;;;;;10254611;28;20128;-67
2021/05/13 12:16:34;;;;;;;9.98;7.07;;;;;;;;;;10252208;28;19956;-67
2021/05/13 12:21:31;;;;;;;10.85;6.40;;;;;;;;;;10256739;28;20049;-67
2021/05/13 12:26:32;;;;;;;14.20;6.63;;;;;;;;;;10254839;28;20088;-67
2021/05/13 12:31:28;;;;;;;12.35;7.40;;;;;;;;;;10244715;28;20614;-66
2021/05/13 12:36:25;;;;;;;13.23;6.43;;;;;;;;;;10252950;28;20048;-67
2021/05/13 12:41:26;;;;;;;9.65;7.18;;;;;;;;;;10254748;28;20041;-67
2021/05/13 12:46:23;;;;;;;15.98;7.70;;;;;;;;;;10247729;28;20478;-67
2021/05/13 12:51:21;;;;;;;12.57;7.15;;;;;;;;;;10260996;28;20465;-68
2021/05/13 12:56:31;;;;;;;10.13;6.97;;;;;;;;;;10256292;28;20111;-68
2021/05/13 13:01:28;;;;;;;11.57;7.88;;;;;;;;;;10252527;28;20049;-68
2021/05/13 13:06:24;;;;;;;18.77;12.10;;;;;;;;;;10253676;28;20061;-69
2021/05/13 13:11:35;;;;;;;10.38;7.95;;;;;;;;;;10252893;28;20096;-68
2021/05/13 13:16:38;;;;;;;12.02;7.70;;;;;;;;;;10257360;28;20048;-68
2021/05/13 13:21:36;;;;;;;12.85;7.60;;;;;;;;;;10249978;28;20049;-68
2021/05/13 13:26:34;;;;;;;9.27;5.78;;;;;;;;;;10245154;28;20080;-68
2021/05/13 13:31:36;;;;;;;11.57;7.05;;;;;;;;;;10250577;28;20053;-67
2021/05/13 13:36:33;;;;;;;13.27;8.03;;;;;;;;;;10249782;28;20040;-69
2021/05/13 13:41:31;;;;;;;11.52;7.45;;;;;;;;;;10250077;28;20057;-67
2021/05/13 13:46:27;;;;;;;13.20;7.72;;;;;;;;;;10250681;28;20079;-67
2021/05/13 13:51:23;;;;;;;10.88;7.57;;;;;;;;;;10252671;28;20123;-68
2021/05/13 13:56:20;;;;;;;14.63;7.97;;;;;;;;;;10252878;28;20041;-67
2021/05/13 14:01:16;;;;;;;15.80;9.77;;;;;;;;;;10248611;28;20056;-67
2021/05/13 14:06:13;;;;;;;12.70;10.65;;;;;;;;;;10251909;28;20048;-67
2021/05/13 14:11:09;;;;;;;13.05;11.32;;;;;;;;;;10263182;28;20049;-67
2021/05/13 14:16:05;;;;;;;14.85;10.55;;;;;;;;;;10252788;28;20044;-68
2021/05/13 14:21:02;;;;;;;13.82;10.38;;;;;;;;;;10258959;28;20045;-68
2021/05/13 14:25:58;;;;;;;14.52;11.05;;;;;;;;;;10259313;28;20060;-68
2021/05/13 14:30:58;;;;;;;17.25;10.82;;;;;;;;;;10255164;28;20730;-68
2021/05/13 14:35:57;;;;;;;13.30;10.65;;;;;;;;;;10253355;28;20055;-68
2021/05/13 14:40:54;;;;;;;14.80;11.02;;;;;;;;;;10249087;28;20106;-68
2021/05/13 14:45:50;;;;;;;14.02;11.32;;;;;;;;;;10253037;28;20091;-68
2021/05/13 14:50:47;;;;;;;12.55;10.15;;;;;;;;;;10262642;28;20110;-68
2021/05/13 14:55:43;;;;;;;15.77;11.52;;;;;;;;;;10253318;28;20076;-69
2021/05/13 15:00:43;;;;;;;15.80;12.00;;;;;;;;;;10250950;28;20518;-68
2021/05/13 15:05:40;;;;;;;15.52;12.27;;;;;;;;;;10258669;28;20056;-67
2021/05/13 15:10:37;;;;;;;14.07;10.80;;;;;;;;;;10263278;28;20041;-67
2021/05/13 15:15:33;;;;;;;15.27;11.25;;;;;;;;;;10250702;28;20049;-67
2021/05/13 15:20:32;;;;;;;13.32;11.00;;;;;;;;;;10264884;28;20048;-67
2021/05/13 15:25:32;;;;;;;14.25;11.43;;;;;;;;;;10253539;28;20049;-68
2021/05/13 15:30:29;;;;;;;17.52;12.35;;;;;;;;;;10243693;28;20072;-68
2021/05/13 15:35:25;;;;;;;19.13;13.95;;;;;;;;;;10255257;28;20049;-68
2021/05/13 15:40:21;;;;;;;14.82;12.32;;;;;;;;;;10244073;28;20495;-68
2021/05/13 15:45:18;;;;;;;15.75;12.52;;;;;;;;;;10254827;28;20447;-68
2021/05/13 15:50:14;;;;;;;17.08;11.88;;;;;;;;;;10250976;28;20062;-69
2021/05/13 15:55:12;;;;;;;16.60;11.68;;;;;;;;;;10259476;28;20059;-68
2021/05/13 16:00:08;;;;;;;18.33;11.02;;;;;;;;;;10246376;28;20049;-68
2021/05/13 16:05:09;;;;;;;16.40;11.18;;;;;;;;;;10250957;28;20057;-68
2021/05/13 16:10:06;;;;;;;20.80;13.52;;;;;;;;;;10254958;28;20145;-68
2021/05/13 16:15:02;;;;;;;19.13;11.98;;;;;;;;;;10250332;28;20384;-68
2021/05/13 16:19:59;;;;;;;18.00;11.55;;;;;;;;;;10241429;28;20049;-67
2021/05/13 16:24:55;;;;;;;16.15;10.80;;;;;;;;;;10232287;28;20080;-67
2021/05/13 16:29:55;;;;;;;16.60;11.55;;;;;;;;;;10246925;28;20143;-67
2021/05/13 16:34:52;;;;;;;14.98;9.70;;;;;;;;;;10245849;28;20453;-68
2021/05/13 16:39:48;;;;;;;16.50;11.60;;;;;;;;;;10245797;28;20460;-68
2021/05/13 16:44:45;;;;;;;15.32;12.05;;;;;;;;;;10243147;28;20045;-69
2021/05/13 16:49:42;;;;;;;15.32;11.27;;;;;;;;;;10235561;28;20095;-68
2021/05/13 16:54:38;;;;;;;20.80;13.60;;;;;;;;;;10242183;28;20142;-69
2021/05/13 16:59:34;;;;;;;16.75;12.30;;;;;;;;;;10240216;28;20104;-69
2021/05/13 17:04:37;;;;;;;21.45;14.85;;;;;;;;;;10240558;28;20038;-67
2021/05/13 17:09:34;;;;;;;20.03;13.90;;;;;;;;;;10240823;28;20123;-67
2021/05/13 17:14:31;;;;;;;19.10;13.68;;;;;;;;;;10245486;28;20058;-67
2021/05/13 17:19:28;;;;;;;17.60;12.32;;;;;;;;;;10238918;28;20049;-68
2021/05/13 17:24:24;;;;;;;14.82;11.77;;;;;;;;;;10247845;28;20119;-68
2021/05/13 17:29:33;;;;;;;17.10;10.75;;;;;;;;;;10245283;28;20395;-68
2021/05/13 17:34:29;;;;;;;16.08;9.55;;;;;;;;;;10241480;28;20499;-68
2021/05/13 17:39:29;;;;;;;15.02;9.32;;;;;;;;;;10246679;28;20049;-67
2021/05/13 17:44:25;;;;;;;12.57;7.95;;;;;;;;;;10242466;28;20037;-68
2021/05/13 17:49:22;;;;;;;12.27;7.75;;;;;;;;;;10253457;28;20048;-69
2021/05/13 17:54:19;;;;;;;19.23;11.05;;;;;;;;;;10246796;28;20045;-67
2021/05/13 17:59:16;;;;;;;15.45;7.82;;;;;;;;;;10244382;28;20128;-68
2021/05/13 18:04:12;;;;;;;11.45;5.55;;;;;;;;;;10238282;28;20076;-67
2021/05/13 18:09:09;;;;;;;12.70;5.00;;;;;;;;;;10243232;28;20076;-68
2021/05/13 18:14:06;;;;;;;9.75;4.57;;;;;;;;;;10240039;28;20103;-68
2021/05/13 18:19:03;;;;;;;9.75;4.80;;;;;;;;;;10239090;28;20131;-68
2021/05/13 18:24:02;;;;;;;11.13;4.93;;;;;;;;;;10238980;28;20080;-67
2021/05/13 18:28:59;;;;;;;15.75;6.57;;;;;;;;;;10240221;28;20049;-68
2021/05/13 18:33:55;;;;;;;15.38;7.28;;;;;;;;;;10238892;28;20045;-67
2021/05/13 18:38:54;;;;;;;13.18;6.47;;;;;;;;;;10239023;28;20053;-68
2021/05/13 18:43:53;;;;;;;8.45;5.53;;;;;;;;;;10249155;28;20045;-68
2021/05/13 18:48:49;;;;;;;10.93;5.60;;;;;;;;;;10239731;28;20087;-68
2021/05/13 18:53:45;;;;;;;10.65;5.50;;;;;;;;;;10239786;28;20099;-68
2021/05/13 18:58:42;;;;;;;10.88;6.82;;;;;;;;;;10243366;28;20777;-67
2021/05/13 19:03:41;;;;;;;15.32;9.82;;;;;;;;;;10250617;28;20133;-67
2021/05/13 19:08:38;;;;;;;16.50;12.13;;;;;;;;;;10243588;28;20068;-67
2021/05/13 19:13:34;;;;;;;25.95;16.48;;;;;;;;;;10251584;28;20049;-67
2021/05/13 19:18:32;;;;;;;24.15;17.10;;;;;;;;;;10252886;28;20131;-67
2021/05/13 19:23:28;;;;;;;22.60;17.08;;;;;;;;;;10255709;28;20091;-67
2021/05/13 19:28:27;;;;;;;23.15;14.98;;;;;;;;;;10249968;28;20077;-68
2021/05/13 19:38:38;;;;;;;23.73;16.13;;;;;;;;;;10240047;28;20076;-68
2021/05/13 19:43:34;;;;;;;23.38;15.70;;;;;;;;;;10241984;28;20069;-68
2021/05/13 19:48:31;;;;;;;24.23;16.77;;;;;;;;;;10242611;28;20577;-68
2021/05/13 19:53:27;;;;;;;25.63;18.15;;;;;;;;;;10243590;28;20530;-67
2021/05/13 19:58:24;;;;;;;25.02;18.75;;;;;;;;;;10245941;28;20129;-68
2021/05/13 20:03:52;;;;;;;26.20;19.52;;;;;;;;;;10245293;28;20049;-67
2021/05/13 20:13:45;;;;;;;28.40;21.88;;;;;;;;;;10239085;28;20037;-67
2021/05/13 20:18:42;;;;;;;26.90;19.23;;;;;;;;;;10244625;28;20050;-67
2021/05/13 20:23:44;;;;;;;25.38;19.23;;;;;;;;;;10245426;28;20466;-68
2021/05/13 20:28:46;;;;;;;27.13;18.70;;;;;;;;;;10241229;28;20132;-67
2021/05/13 20:33:43;;;;;;;28.07;19.40;;;;;;;;;;10244770;28;20045;-67
2021/05/13 20:38:40;;;;;;;28.08;19.73;;;;;;;;;;10243815;28;20060;-66
2021/05/13 20:43:37;;;;;;;31.13;20.88;;;;;;;;;;10238564;28;20110;-69
2021/05/13 20:48:37;;;;;;;29.00;21.35;;;;;;;;;;10232071;28;20068;-67
2021/05/13 21:04:07;;;;;;;28.75;19.08;;;;;;;;;;10249028;28;20466;-67
2021/05/13 21:30:09;;;;;;;29.40;19.42;;;;;;;;;;10248112;28;20048;-66
2021/05/13 21:35:05;;;;;;;29.00;20.67;;;;;;;;;;10258409;28;20063;-66
2021/05/13 21:40:02;;;;;;;23.92;18.92;;;;;;;;;;10264181;28;20049;-67
2021/05/13 21:44:58;;;;;;;28.15;20.25;;;;;;;;;;10253225;28;20448;-66
2021/05/13 21:49:55;;;;;;;33.72;19.45;;;;;;;;;;10262514;28;20037;-66
2021/05/13 21:54:51;;;;;;;24.30;17.70;;;;;;;;;;10252930;28;20503;-65
2021/05/13 21:59:48;;;;;;;26.58;17.83;;;;;;;;;;10248632;28;20491;-67
2021/05/13 22:04:44;;;;;;;24.48;17.23;;;;;;;;;;10247369;28;20136;-66
2021/05/13 22:09:46;;;;;;;27.63;18.70;;;;;;;;;;10268190;28;20072;-68
2021/05/13 22:14:43;;;;;;;27.55;19.63;;;;;;;;;;10257775;28;20556;-68
2021/05/13 22:19:51;;;;;;;29.45;18.38;;;;;;;;;;10256168;28;20044;-68
2021/05/13 22:29:44;;;;;;;27.48;17.85;;;;;;;;;;10257631;28;20036;-65
2021/05/13 22:34:41;;;;;;;27.48;17.90;;;;;;;;;;10262199;28;20171;-67
2021/05/13 22:39:38;;;;;;;27.67;17.30;;;;;;;;;;10253355;28;20041;-67
2021/05/13 22:44:35;;;;;;;24.08;17.17;;;;;;;;;;10267364;28;20040;-67
2021/05/13 22:49:34;;;;;;;33.88;18.33;;;;;;;;;;10270540;28;20111;-66
2021/05/13 22:54:35;;;;;;;28.92;17.15;;;;;;;;;;10259608;28;20065;-66
2021/05/13 22:59:31;;;;;;;24.42;16.88;;;;;;;;;;10255361;28;20107;-65
2021/05/13 23:04:27;;;;;;;25.55;16.13;;;;;;;;;;10252546;28;20417;-67
2021/05/13 23:09:25;;;;;;;23.77;16.60;;;;;;;;;;10269225;28;20123;-66
2021/05/13 23:19:18;;;;;;;27.30;15.43;;;;;;;;;;10259367;28;20076;-68
2021/05/13 23:24:14;;;;;;;23.38;15.32;;;;;;;;;;10264308;28;20079;-68
2021/05/13 23:29:11;;;;;;;25.35;15.15;;;;;;;;;;10266240;28;20506;-66
2021/05/13 23:34:07;;;;;;;25.90;15.65;;;;;;;;;;10271482;28;20037;-67
2021/05/13 23:39:05;;;;;;;28.17;17.23;;;;;;;;;;10268661;28;20037;-66
2021/05/13 23:44:01;;;;;;;28.00;15.93;;;;;;;;;;10263708;28;20140;-67
2021/05/13 23:48:58;;;;;;;29.77;15.82;;;;;;;;;;10254303;28;20037;-66
2021/05/13 23:53:54;;;;;;;27.35;15.43;;;;;;;;;;10259348;28;20430;-66
2021/05/13 23:58:50;;;;;;;26.83;14.13;;;;;;;;;;10267481;28;20036;-67
